OCN133 FYWH-EDDF
Flight info
| Callsign | OCN133 |
|---|---|
| Flight time | N/A |
| Altitude | 36000 |
| Route | VEDRY UL685 OKSUN UM436 ANVAG UN187 VNA UR526 LIKAD UY339 APEMI/N0476F380 UY339 MESIN UG861 DLA UA604 AS UR978 MELOG/N0475F400 UR978 BOD/N0468F390 UG362 EBA/N0467F400 UG869 MAKEB UM858 DOPEL DCT DEC DCT UPDUT DCT CORSI DCT OKROK DCT AKUTI DCT TORTU DCT ERTEV DCT ABESI DCT LADOL T163 EMPAX EMPAX5B |
| Aircraft | A333/H-SDE3GHIJ2J3J5M1RVWXY/LB2D1 |
Departure
| Time | 2026-04-25 20:04 |
|---|---|
| Airport | Hosea Kutako International Airport (FYWH) |
Arrival
| Time | N/A |
|---|---|
| Airport | Frankfurt Main Airport (EDDF) |
| Time | Latitude | Longitude | Altitude | Speed | Heading |
|---|---|---|---|---|---|
| 2026-04-25 19:39 | -22.48660 | 17.46191 | 5609 ft | 0 kts | 324° |
| 2026-04-25 19:58 | -22.48635 | 17.46173 | 5616 ft | 8 kts | 329° |
| 2026-04-25 19:58 | -22.48572 | 17.46173 | 5616 ft | 11 kts | 22° |
| 2026-04-25 19:58 | -22.48503 | 17.46246 | 5614 ft | 17 kts | 57° |
| 2026-04-25 19:58 | -22.48442 | 17.46376 | 5608 ft | 22 kts | 64° |
| 2026-04-25 19:59 | -22.48372 | 17.46535 | 5606 ft | 26 kts | 64° |
| 2026-04-25 19:59 | -22.48285 | 17.46721 | 5600 ft | 29 kts | 63° |
| 2026-04-25 19:59 | -22.48212 | 17.46879 | 5584 ft | 18 kts | 63° |
| 2026-04-25 19:59 | -22.48149 | 17.47015 | 5581 ft | 22 kts | 64° |
| 2026-04-25 20:00 | -22.48077 | 17.47172 | 5583 ft | 24 kts | 63° |
| 2026-04-25 20:00 | -22.48024 | 17.47288 | 5582 ft | 27 kts | 64° |
| 2026-04-25 20:00 | -22.47916 | 17.47521 | 5577 ft | 25 kts | 63° |
| 2026-04-25 20:00 | -22.47833 | 17.47702 | 5572 ft | 27 kts | 63° |
| 2026-04-25 20:01 | -22.47707 | 17.47915 | 5570 ft | 9 kts | 355° |
| 2026-04-25 20:01 | -22.47622 | 17.47922 | 5569 ft | 14 kts | 27° |
| 2026-04-25 20:01 | -22.47555 | 17.48032 | 5568 ft | 21 kts | 64° |
| 2026-04-25 20:02 | -22.47484 | 17.48187 | 5565 ft | 25 kts | 63° |
| 2026-04-25 20:02 | -22.47399 | 17.48369 | 5564 ft | 29 kts | 64° |
| 2026-04-25 20:02 | -22.47306 | 17.48572 | 5558 ft | 31 kts | 64° |
| 2026-04-25 20:02 | -22.47224 | 17.48783 | 5553 ft | 29 kts | 89° |
| 2026-04-25 20:03 | -22.47249 | 17.48940 | 5552 ft | 18 kts | 47° |
| 2026-04-25 20:03 | -22.47163 | 17.48913 | 5549 ft | 12 kts | 283° |
| 2026-04-25 20:03 | -22.47191 | 17.48821 | 5553 ft | 20 kts | 243° |
| 2026-04-25 20:03 | -22.47326 | 17.48529 | 5561 ft | 69 kts | 243° |
| 2026-04-25 20:04 | -22.47616 | 17.47901 | 5569 ft | 117 kts | 243° |
| 2026-04-25 20:04 | -22.48051 | 17.46960 | 5584 ft | 162 kts | 243° |
| 2026-04-25 20:04 | -22.48602 | 17.45776 | 5845 ft | 189 kts | 244° |
| 2026-04-25 20:04 | -22.49245 | 17.44526 | 6565 ft | 192 kts | 243° |
| 2026-04-25 20:05 | -22.49907 | 17.43269 | 7270 ft | 194 kts | 244° |
| 2026-04-25 20:05 | -22.50371 | 17.41863 | 7427 ft | 207 kts | 270° |
| 2026-04-25 20:05 | -22.50362 | 17.41410 | 7497 ft | 209 kts | 280° |
| 2026-04-25 20:06 | -22.50208 | 17.40728 | 7648 ft | 213 kts | 291° |
| 2026-04-25 20:06 | -22.49552 | 17.39235 | 8016 ft | 229 kts | 303° |
| 2026-04-25 20:06 | -22.48590 | 17.37774 | 8158 ft | 247 kts | 309° |
| 2026-04-25 20:06 | -22.47442 | 17.36320 | 8408 ft | 260 kts | 312° |
| 2026-04-25 20:07 | -22.46218 | 17.34853 | 8837 ft | 265 kts | 313° |
| 2026-04-25 20:07 | -22.44990 | 17.33348 | 9429 ft | 268 kts | 311° |
| 2026-04-25 20:07 | -22.43779 | 17.31817 | 10017 ft | 268 kts | 310° |
| 2026-04-25 20:07 | -22.42582 | 17.30266 | 10590 ft | 270 kts | 309° |
| 2026-04-25 20:08 | -22.41383 | 17.28685 | 11106 ft | 273 kts | 309° |
| 2026-04-25 20:08 | -22.40176 | 17.27082 | 11658 ft | 276 kts | 309° |
| 2026-04-25 20:08 | -22.38923 | 17.25498 | 12184 ft | 279 kts | 315° |
| 2026-04-25 20:08 | -22.37365 | 17.24227 | 12688 ft | 283 kts | 330° |
| 2026-04-25 20:09 | -22.35572 | 17.23317 | 13231 ft | 286 kts | 337° |
| 2026-04-25 20:09 | -22.33685 | 17.22588 | 13751 ft | 290 kts | 341° |
| 2026-04-25 20:09 | -22.31743 | 17.21965 | 14243 ft | 293 kts | 343° |
| 2026-04-25 20:09 | -22.29766 | 17.21387 | 14687 ft | 296 kts | 344° |
| 2026-04-25 20:10 | -22.27757 | 17.20811 | 15120 ft | 300 kts | 343° |
| 2026-04-25 20:10 | -22.25700 | 17.20214 | 15347 ft | 313 kts | 343° |
| 2026-04-25 20:10 | -22.23585 | 17.19583 | 15513 ft | 327 kts | 343° |
| 2026-04-25 20:10 | -22.21349 | 17.18901 | 15682 ft | 341 kts | 343° |
| 2026-04-25 20:11 | -22.19024 | 17.18183 | 15866 ft | 354 kts | 343° |
| 2026-04-25 20:11 | -22.16610 | 17.17431 | 16039 ft | 368 kts | 343° |
| 2026-04-25 20:11 | -22.14122 | 17.16656 | 16319 ft | 376 kts | 343° |
| 2026-04-25 20:11 | -22.11589 | 17.15867 | 16722 ft | 381 kts | 343° |
| 2026-04-25 20:12 | -22.09024 | 17.15071 | 17150 ft | 386 kts | 343° |
| 2026-04-25 20:12 | -22.06415 | 17.14260 | 17363 ft | 396 kts | 343° |
| 2026-04-25 20:12 | -22.03731 | 17.13425 | 17528 ft | 407 kts | 343° |
| 2026-04-25 20:12 | -22.02809 | 17.13139 | 17579 ft | 410 kts | 343° |
| 2026-04-25 20:13 | -21.98166 | 17.11697 | 17878 ft | 424 kts | 343° |
| 2026-04-25 20:13 | -21.95314 | 17.10813 | 18170 ft | 429 kts | 343° |
| 2026-04-25 20:13 | -21.92435 | 17.09922 | 18492 ft | 432 kts | 343° |
| 2026-04-25 20:13 | -21.89532 | 17.09023 | 18792 ft | 435 kts | 343° |
| 2026-04-25 20:14 | -21.86619 | 17.08121 | 19097 ft | 438 kts | 342° |
| 2026-04-25 20:14 | -21.83680 | 17.07211 | 19367 ft | 441 kts | 342° |
| 2026-04-25 20:14 | -21.80727 | 17.06298 | 19668 ft | 443 kts | 342° |
| 2026-04-25 20:14 | -21.77757 | 17.05379 | 19969 ft | 445 kts | 342° |
| 2026-04-25 20:15 | -21.74767 | 17.04455 | 20260 ft | 448 kts | 342° |
| 2026-04-25 20:15 | -21.71768 | 17.03528 | 20563 ft | 450 kts | 342° |
| 2026-04-25 20:15 | -21.68754 | 17.02597 | 20851 ft | 452 kts | 342° |
| 2026-04-25 20:15 | -21.65721 | 17.01660 | 21131 ft | 454 kts | 341° |
| 2026-04-25 20:16 | -21.62675 | 17.00720 | 21412 ft | 457 kts | 341° |
| 2026-04-25 20:16 | -21.59612 | 16.99775 | 21692 ft | 459 kts | 341° |
| 2026-04-25 20:16 | -21.56534 | 16.98826 | 21986 ft | 462 kts | 341° |
| 2026-04-25 20:16 | -21.53472 | 16.97881 | 22174 ft | 466 kts | 341° |
| 2026-04-25 20:17 | -21.50304 | 16.96905 | 22446 ft | 469 kts | 341° |
| 2026-04-25 20:17 | -21.47209 | 16.95952 | 22735 ft | 470 kts | 341° |
| 2026-04-25 20:17 | -21.44055 | 16.94982 | 23014 ft | 473 kts | 341° |
| 2026-04-25 20:17 | -21.40883 | 16.94006 | 23295 ft | 475 kts | 341° |
| 2026-04-25 20:18 | -21.37700 | 16.93027 | 23551 ft | 478 kts | 341° |
| 2026-04-25 20:18 | -21.34498 | 16.92043 | 23811 ft | 480 kts | 341° |
| 2026-04-25 20:18 | -21.31286 | 16.91056 | 24086 ft | 480 kts | 341° |
| 2026-04-25 20:18 | -21.28028 | 16.90056 | 24387 ft | 481 kts | 341° |
| 2026-04-25 20:19 | -21.24810 | 16.89070 | 24681 ft | 481 kts | 341° |
| 2026-04-25 20:19 | -21.21590 | 16.88082 | 24975 ft | 482 kts | 341° |
| 2026-04-25 20:19 | -21.18363 | 16.87093 | 25249 ft | 482 kts | 341° |
| 2026-04-25 20:19 | -21.15133 | 16.86103 | 25536 ft | 483 kts | 341° |
| 2026-04-25 20:20 | -21.11903 | 16.85113 | 25812 ft | 484 kts | 340° |
| 2026-04-25 20:20 | -21.08706 | 16.84134 | 26085 ft | 485 kts | 340° |
| 2026-04-25 20:20 | -21.05460 | 16.83140 | 26356 ft | 485 kts | 340° |
| 2026-04-25 20:20 | -21.02211 | 16.82145 | 26636 ft | 486 kts | 340° |
| 2026-04-25 20:21 | -20.98957 | 16.81150 | 26910 ft | 487 kts | 340° |
| 2026-04-25 20:21 | -20.95695 | 16.80153 | 27182 ft | 488 kts | 341° |
| 2026-04-25 20:21 | -20.92426 | 16.79154 | 27405 ft | 490 kts | 341° |
| 2026-04-25 20:21 | -20.89147 | 16.78152 | 27657 ft | 491 kts | 341° |
| 2026-04-25 20:22 | -20.85865 | 16.77150 | 27927 ft | 491 kts | 341° |
| 2026-04-25 20:22 | -20.84751 | 16.76810 | 28012 ft | 492 kts | 341° |
| 2026-04-25 20:22 | -20.79280 | 16.75141 | 28451 ft | 493 kts | 341° |
| 2026-04-25 20:22 | -20.75977 | 16.74135 | 28702 ft | 493 kts | 341° |
| 2026-04-25 20:23 | -20.72676 | 16.73129 | 28937 ft | 494 kts | 341° |
| 2026-04-25 20:23 | -20.69366 | 16.72121 | 29173 ft | 495 kts | 341° |
| 2026-04-25 20:23 | -20.66055 | 16.71113 | 29495 ft | 494 kts | 341° |
| 2026-04-25 20:23 | -20.62763 | 16.70112 | 29895 ft | 491 kts | 341° |
| 2026-04-25 20:24 | -20.59484 | 16.69116 | 30279 ft | 488 kts | 341° |
| 2026-04-25 20:24 | -20.56232 | 16.68128 | 30584 ft | 486 kts | 341° |
| 2026-04-25 20:24 | -20.52979 | 16.67139 | 30812 ft | 486 kts | 341° |
| 2026-04-25 20:24 | -20.49729 | 16.66151 | 31049 ft | 486 kts | 341° |
| 2026-04-25 20:25 | -20.46478 | 16.65163 | 31298 ft | 485 kts | 341° |
| 2026-04-25 20:25 | -20.43235 | 16.64179 | 31534 ft | 485 kts | 341° |
| 2026-04-25 20:25 | -20.39995 | 16.63196 | 31788 ft | 484 kts | 340° |
| 2026-04-25 20:25 | -20.36757 | 16.62214 | 32040 ft | 483 kts | 340° |
| 2026-04-25 20:26 | -20.33530 | 16.61236 | 32294 ft | 482 kts | 340° |
| 2026-04-25 20:26 | -20.30300 | 16.60257 | 32447 ft | 484 kts | 341° |
| 2026-04-25 20:26 | -20.28152 | 16.59605 | 32549 ft | 485 kts | 341° |
| 2026-04-25 20:26 | -20.24911 | 16.58624 | 32778 ft | 484 kts | 340° |
| 2026-04-25 20:27 | -20.21673 | 16.57644 | 33041 ft | 483 kts | 340° |
| 2026-04-25 20:27 | -20.18441 | 16.56667 | 33301 ft | 482 kts | 340° |
| 2026-04-25 20:27 | -20.14171 | 16.55377 | 33608 ft | 481 kts | 340° |
| 2026-04-25 20:27 | -20.10951 | 16.54404 | 33836 ft | 481 kts | 340° |
| 2026-04-25 20:28 | -20.08778 | 16.53747 | 33997 ft | 480 kts | 340° |
| 2026-04-25 20:28 | -20.05566 | 16.52777 | 34194 ft | 480 kts | 340° |
| 2026-04-25 20:28 | -20.02358 | 16.51809 | 34398 ft | 479 kts | 340° |
| 2026-04-25 20:28 | -19.99146 | 16.50840 | 34525 ft | 480 kts | 340° |
| 2026-04-25 20:29 | -19.95930 | 16.49869 | 34672 ft | 481 kts | 340° |
| 2026-04-25 20:29 | -19.92713 | 16.48899 | 34869 ft | 480 kts | 340° |
| 2026-04-25 20:29 | -19.89504 | 16.47932 | 35077 ft | 479 kts | 340° |
| 2026-04-25 20:29 | -19.86302 | 16.46968 | 35285 ft | 478 kts | 340° |
| 2026-04-25 20:30 | -19.83103 | 16.46007 | 35471 ft | 477 kts | 340° |
| 2026-04-25 20:30 | -19.79911 | 16.45047 | 35671 ft | 476 kts | 340° |
| 2026-04-25 20:30 | -19.76723 | 16.44087 | 35851 ft | 476 kts | 340° |
| 2026-04-25 20:30 | -19.73541 | 16.43130 | 36024 ft | 476 kts | 340° |
| 2026-04-25 20:31 | -19.67199 | 16.41222 | 36061 ft | 478 kts | 341° |
| 2026-04-25 20:31 | -19.60797 | 16.39299 | 36061 ft | 478 kts | 341° |